Ramer, Tennessee
Current Conditions -  °F | °C
As of 10:55 AM on Friday 28 Nov 2014 (Local Time) from KCRX Reporting Station
Clear Clear  
Wind Chill: 39°   Ceiling: Unl
Heat Index: 43°   Visibility: NA
Dew Point: 27°   Wind: 6mph
Humidity: 53%   Direction: 140°SE
Pressure: 30.4"   Gusts: NA
Location:  35.07°N, 88.62°W
Report Text: KCRX 281655Z AUTO 14005KT CLR 06/M03 A3040 RMK AO2
Loading
Personal Weather Stations






























Interactive Weather Map New forecast layout! Learn more

10-Day Weather Forecast

Advertisements
Track Severe Weather on mobile